This is the latest recevied weather packets stored in our database for station/object N9WHM. If no packets are shown the sender has not sent any weather packets the latest 1 day(s).
| Time | Temp. | Humidity | Pressure | Rain* | Wind** | Luminosity | Snow |
|---|---|---|---|---|---|---|---|
| 1778030811 | 10.56° C | 34% | 1013.2 hPa | 0 mm | 1.79 m/s, 2° | 2 W/m² | - |
| 1778030508 | 11.11° C | 33% | 1013.2 hPa | 0 mm | 1.34 m/s, 12° | 3 W/m² | - |
| 1778030205 | 11.11° C | 33% | 1013.3 hPa | 0 mm | 2.24 m/s, 330° | 5 W/m² | - |
| 1778029902 | 11.11° C | 33% | 1013 hPa | 0 mm | 2.68 m/s, 312° | 6 W/m² | - |
| 1778029600 | 11.11° C | 33% | 1013.1 hPa | 0 mm | 2.24 m/s, 328° | 8 W/m² | - |
| 1778029297 | 11.11° C | 33% | 1013.2 hPa | 0 mm | 0.89 m/s, 2° | 12 W/m² | - |
| 1778028994 | 11.67° C | 32% | 1013.1 hPa | 0 mm | 2.24 m/s, 19° | 17 W/m² | - |
| 1778028691 | 11.67° C | 32% | 1013.2 hPa | 0 mm | 2.24 m/s, 344° | 24 W/m² | - |
| 1778028387 | 11.67° C | 33% | 1013.2 hPa | 0 mm | 2.24 m/s, 314° | 29 W/m² | - |
| 1778028084 | 11.67° C | 32% | 1013 hPa | 0 mm | 4.47 m/s, 342° | 35 W/m² | - |
| 1778027780 | 11.67° C | 32% | 1012.9 hPa | 0 mm | 1.79 m/s, 28° | 45 W/m² | - |
| 1778027476 | 11.67° C | 32% | 1013.1 hPa | 0 mm | 2.68 m/s, 349° | 56 W/m² | - |
| 1778027172 | 11.67° C | 33% | 1013.1 hPa | 0 mm | 1.34 m/s, 359° | 47 W/m² | - |
| 1778026868 | 11.67° C | 33% | 1013 hPa | 0 mm | 2.68 m/s, 75° | 51 W/m² | - |
| 1778026564 | 11.67° C | 32% | 1013.1 hPa | 0 mm | 3.13 m/s, 359° | 58 W/m² | - |
| 1778026262 | 12.22° C | 32% | 1012.8 hPa | 0 mm | 4.02 m/s, 315° | 58 W/m² | - |
| 1778025959 | 12.22° C | 32% | 1012.9 hPa | 0 mm | 4.47 m/s, 344° | 63 W/m² | - |
| 1778025656 | 12.22° C | 32% | 1012.7 hPa | 0 mm | 3.13 m/s, 16° | 74 W/m² | - |
| 1778025354 | 12.22° C | 32% | 1012.7 hPa | 0 mm | 1.79 m/s, 20° | 75 W/m² | - |
| 1778025051 | 12.22° C | 32% | 1012.8 hPa | 0 mm | 4.02 m/s, 339° | 85 W/m² | - |
| 1778024748 | 12.22° C | 32% | 1012.7 hPa | 0 mm | 2.68 m/s, 322° | 91 W/m² | - |
| 1778024444 | 12.22° C | 32% | 1012.6 hPa | 0 mm | 3.58 m/s, 344° | 111 W/m² | - |
| 1778024142 | 12.78° C | 33% | 1012.8 hPa | 0 mm | 3.58 m/s, 317° | 130 W/m² | - |
| 1778023839 | 12.22° C | 33% | 1012.6 hPa | 0 mm | 3.13 m/s, 340° | 165 W/m² | - |
| 1778023537 | 12.22° C | 33% | 1012.7 hPa | 0 mm | 3.58 m/s, 328° | 124 W/m² | - |
* Rain latest hour (hover to see other rain measurements)
** Current wind speed in m/s (hover to see current wind gust speed)